Aviation Digital Data Service (ADDS)

Output produced by METARs form (1437 UTC 05 December 2016)
found at http://aviationweather.gov/adds/metars/
 
KPQI 051134Z 0512/0612 VRB03KT P6SM SCT150 
     FM052100 VRB03KT P6SM BKN025 
     FM060500 VRB03KT P6SM BKN045